Terminal Aerodrome Forecast
Issued by NWS

Home | Current Version | Previous Version | Text Only | Print | Product List | Glossary On
Versions: 1 2 3 4 5 6 7 8 9 10 11 12 13 14 15 16 17 18 19 20 21 22 23 24 25 26 27 28 29 30 31 32 33 34 35 36 37 38 39 40 41 42 43 44 45 46 47 48
000
FTUS45 KBOU 152053 AAA
TAFAPA
TAF AMD
KAPA 152053Z 1521/1618 02010KT P6SM VCTS BKN060CB BKN100
      TEMPO 1521/1601 VRB20G30KT -TSRA
     FM160100 24009KT P6SM SCT060 BKN120
     FM161000 21006KT P6SM SCT100
     FM161700 17008KT P6SM FEW060 SCT120=

USA.gov is the U.S. government's official web portal to all federal, state and local government web resources and services.